This is the latest recevied weather packets stored in our database for station/object KJ7IVE-13. If no packets are shown the sender has not sent any weather packets the latest 10 day(s).
| Time | Temp. | Humidity | Pressure | Rain* | Wind** | Luminosity | Snow |
|---|---|---|---|---|---|---|---|
| 1777693022 | 13.89° C | 10% | 1020.6 hPa | 0 mm | - | 0 W/m² | - |
| 1777692720 | 13.89° C | 10% | 1020.4 hPa | 0 mm | - | 0 W/m² | - |
| 1777692416 | 13.89° C | 10% | 1020.4 hPa | 0 mm | - | 0 W/m² | - |
| 1777692112 | 13.89° C | 10% | 1020.7 hPa | 0 mm | - | 0 W/m² | - |
| 1777691810 | 13.89° C | 10% | 1020.1 hPa | 0 mm | - | 0 W/m² | - |
| 1777691508 | 13.89° C | 10% | 1020.3 hPa | 0 mm | - | 0 W/m² | - |
| 1777691206 | 13.89° C | 10% | 1020.1 hPa | 0 mm | - | 0 W/m² | - |
| 1777690904 | 14.44° C | 10% | 1020.2 hPa | 0 mm | - | 0 W/m² | - |
| 1777690601 | 13.89° C | 10% | 1020.1 hPa | 0 mm | - | 0 W/m² | - |
| 1777690299 | 13.89° C | 10% | 1020 hPa | 0 mm | - | 0 W/m² | - |
| 1777689996 | 13.89° C | 10% | 1019.8 hPa | 0 mm | - | 0 W/m² | - |
| 1777689694 | 14.44° C | 10% | 1020.1 hPa | 0 mm | - | 0 W/m² | - |
| 1777689392 | 14.44° C | 10% | 1019.9 hPa | 0 mm | - | 0 W/m² | - |
| 1777689089 | 14.44° C | 10% | 1019.9 hPa | 0 mm | - | 0 W/m² | - |
| 1777688786 | 14.44° C | 10% | 1019.9 hPa | 0 mm | - | 1 W/m² | - |
| 1777672423 | 17.78° C | 10% | 1020.6 hPa | 0 mm | - | 613 W/m² | - |
| 1777671814 | 17.78° C | 10% | 1020.7 hPa | 0 mm | - | 623 W/m² | - |
| 1777670903 | 17.78° C | 10% | 1020.8 hPa | 0 mm | - | 649 W/m² | - |
| 1777670599 | 17.78° C | 10% | 1021.1 hPa | 0 mm | - | 647 W/m² | - |
| 1777669994 | 17.22° C | 10% | 1021 hPa | 0 mm | - | 651 W/m² | - |
| 1777669084 | 17.78° C | 10% | 1021.4 hPa | 0 mm | - | 660 W/m² | - |
| 1777668781 | 17.78° C | 10% | 1021.1 hPa | 0 mm | - | 656 W/m² | - |
| 1777667870 | 17.78° C | 10% | 1021 hPa | 0 mm | - | 658 W/m² | - |
| 1777667568 | 17.78° C | 10% | 1021 hPa | 0 mm | - | 658 W/m² | - |
| 1777667265 | 17.78° C | 10% | 1021.1 hPa | 0 mm | - | 658 W/m² | - |
* Rain latest hour (hover to see other rain measurements)
** Current wind speed in m/s (hover to see current wind gust speed)